sensor_id;sensor_type;location;lat;lon;timestamp;temperature;humidity
816;DHT22;25928;51.062;13.752;2023-05-02T00:00:30;15.90;99.90
816;DHT22;25928;51.062;13.752;2023-05-02T00:02:56;15.90;99.90
816;DHT22;25928;51.062;13.752;2023-05-02T00:05:22;15.90;99.90
816;DHT22;25928;51.062;13.752;2023-05-02T00:07:48;15.90;99.90
816;DHT22;25928;51.062;13.752;2023-05-02T00:10:15;15.90;99.90
816;DHT22;25928;51.062;13.752;2023-05-02T00:12:41;15.90;99.90
816;DHT22;25928;51.062;13.752;2023-05-02T00:15:07;15.90;99.90
816;DHT22;25928;51.062;13.752;2023-05-02T00:17:33;15.80;99.90
816;DHT22;25928;51.062;13.752;2023-05-02T00:19:59;15.80;99.90
816;DHT22;25928;51.062;13.752;2023-05-02T00:22:24;15.80;99.90
816;DHT22;25928;51.062;13.752;2023-05-02T00:24:57;15.90;99.90
816;DHT22;25928;51.062;13.752;2023-05-02T00:27:23;15.90;99.90
816;DHT22;25928;51.062;13.752;2023-05-02T00:29:49;15.90;99.90
816;DHT22;25928;51.062;13.752;2023-05-02T00:32:16;15.90;99.90
816;DHT22;25928;51.062;13.752;2023-05-02T00:34:42;15.90;99.90
816;DHT22;25928;51.062;13.752;2023-05-02T00:37:08;15.90;99.90
816;DHT22;25928;51.062;13.752;2023-05-02T00:39:34;15.90;99.90
816;DHT22;25928;51.062;13.752;2023-05-02T00:42:00;15.90;99.90
816;DHT22;25928;51.062;13.752;2023-05-02T00:44:26;15.80;99.90
816;DHT22;25928;51.062;13.752;2023-05-02T00:46:53;15.80;1.00
816;DHT22;25928;51.062;13.752;2023-05-02T00:49:19;15.90;99.90
816;DHT22;25928;51.062;13.752;2023-05-02T00:51:45;15.80;99.90
816;DHT22;25928;51.062;13.752;2023-05-02T00:54:12;15.80;1.00
816;DHT22;25928;51.062;13.752;2023-05-02T00:56:37;15.80;1.00
816;DHT22;25928;51.062;13.752;2023-05-02T00:59:04;15.90;99.90
816;DHT22;25928;51.062;13.752;2023-05-02T01:13:32;15.80;99.90
816;DHT22;25928;51.062;13.752;2023-05-02T01:15:32;15.80;99.90
816;DHT22;25928;51.062;13.752;2023-05-02T01:18:00;15.80;99.90
816;DHT22;25928;51.062;13.752;2023-05-02T01:20:28;15.80;99.90
816;DHT22;25928;51.062;13.752;2023-05-02T01:23:02;15.80;1.00
816;DHT22;25928;51.062;13.752;2023-05-02T01:25:35;15.80;1.00
816;DHT22;25928;51.062;13.752;2023-05-02T01:30:48;15.80;1.00
816;DHT22;25928;51.062;13.752;2023-05-02T01:33:16;15.80;99.90
816;DHT22;25928;51.062;13.752;2023-05-02T01:35:45;15.80;99.90
816;DHT22;25928;51.062;13.752;2023-05-02T01:38:14;15.80;99.90
816;DHT22;25928;51.062;13.752;2023-05-02T01:40:44;15.80;99.90
816;DHT22;25928;51.062;13.752;2023-05-02T01:43:11;15.80;99.90
816;DHT22;25928;51.062;13.752;2023-05-02T01:45:37;15.70;99.90
816;DHT22;25928;51.062;13.752;2023-05-02T01:48:05;15.60;99.90
816;DHT22;25928;51.062;13.752;2023-05-02T01:50:32;15.70;99.90
816;DHT22;25928;51.062;13.752;2023-05-02T01:52:59;15.60;1.00
816;DHT22;25928;51.062;13.752;2023-05-02T01:55:26;15.70;99.90
816;DHT22;25928;51.062;13.752;2023-05-02T01:57:54;15.60;99.90
816;DHT22;25928;51.062;13.752;2023-05-02T02:00:22;15.60;99.90
816;DHT22;25928;51.062;13.752;2023-05-02T02:02:50;14.60;99.90
816;DHT22;25928;51.062;13.752;2023-05-02T02:05:17;15.70;99.90
816;DHT22;25928;51.062;13.752;2023-05-02T02:07:44;15.60;99.90
816;DHT22;25928;51.062;13.752;2023-05-02T02:10:10;15.60;99.90
816;DHT22;25928;51.062;13.752;2023-05-02T02:12:41;15.70;99.90
816;DHT22;25928;51.062;13.752;2023-05-02T02:15:17;15.80;99.90
816;DHT22;25928;51.062;13.752;2023-05-02T02:18:00;15.70;99.90
816;DHT22;25928;51.062;13.752;2023-05-02T02:20:28;15.70;99.90
816;DHT22;25928;51.062;13.752;2023-05-02T02:22:56;15.70;99.90
816;DHT22;25928;51.062;13.752;2023-05-02T02:25:23;15.80;99.90
816;DHT22;25928;51.062;13.752;2023-05-02T02:27:50;15.80;99.90
816;DHT22;25928;51.062;13.752;2023-05-02T02:30:16;15.80;99.90
816;DHT22;25928;51.062;13.752;2023-05-02T02:32:42;15.70;99.90
816;DHT22;25928;51.062;13.752;2023-05-02T02:35:08;15.80;99.90
816;DHT22;25928;51.062;13.752;2023-05-02T02:40:30;15.80;99.90
816;DHT22;25928;51.062;13.752;2023-05-02T02:43:01;15.80;99.90
816;DHT22;25928;51.062;13.752;2023-05-02T02:51:06;15.70;99.90
816;DHT22;25928;51.062;13.752;2023-05-02T02:53:56;15.70;99.90
816;DHT22;25928;51.062;13.752;2023-05-02T02:56:40;15.60;99.90
816;DHT22;25928;51.062;13.752;2023-05-02T02:59:40;15.60;99.90
816;DHT22;25928;51.062;13.752;2023-05-02T03:02:08;15.60;99.90
816;DHT22;25928;51.062;13.752;2023-05-02T03:04:37;15.60;99.90
816;DHT22;25928;51.062;13.752;2023-05-02T03:07:03;15.70;99.90
816;DHT22;25928;51.062;13.752;2023-05-02T03:09:40;15.60;99.90
816;DHT22;25928;51.062;13.752;2023-05-02T03:12:05;15.60;99.90
816;DHT22;25928;51.062;13.752;2023-05-02T03:14:31;15.50;99.90
816;DHT22;25928;51.062;13.752;2023-05-02T03:16:56;15.80;99.90
816;DHT22;25928;51.062;13.752;2023-05-02T03:19:22;15.60;99.90
816;DHT22;25928;51.062;13.752;2023-05-02T03:21:48;15.60;99.90
816;DHT22;25928;51.062;13.752;2023-05-02T03:24:13;15.60;99.90
816;DHT22;25928;51.062;13.752;2023-05-02T03:26:40;15.50;99.90
816;DHT22;25928;51.062;13.752;2023-05-02T03:29:06;15.30;99.90
816;DHT22;25928;51.062;13.752;2023-05-02T03:31:32;15.30;99.90
816;DHT22;25928;51.062;13.752;2023-05-02T03:33:58;15.30;99.90
816;DHT22;25928;51.062;13.752;2023-05-02T03:36:23;15.10;99.90
816;DHT22;25928;51.062;13.752;2023-05-02T03:38:49;15.10;99.90
816;DHT22;25928;51.062;13.752;2023-05-02T03:41:15;15.00;99.90
816;DHT22;25928;51.062;13.752;2023-05-02T03:43:40;14.90;1.00
816;DHT22;25928;51.062;13.752;2023-05-02T03:46:07;14.80;1.00
816;DHT22;25928;51.062;13.752;2023-05-02T03:48:34;14.90;1.00
816;DHT22;25928;51.062;13.752;2023-05-02T03:51:01;15.00;1.00
816;DHT22;25928;51.062;13.752;2023-05-02T03:53:28;15.10;99.90
816;DHT22;25928;51.062;13.752;2023-05-02T03:55:54;15.00;99.90
816;DHT22;25928;51.062;13.752;2023-05-02T03:58:19;14.90;1.00
816;DHT22;25928;51.062;13.752;2023-05-02T04:00:45;14.80;1.00
816;DHT22;25928;51.062;13.752;2023-05-02T04:03:11;14.70;1.00
816;DHT22;25928;51.062;13.752;2023-05-02T04:05:37;14.60;1.00
816;DHT22;25928;51.062;13.752;2023-05-02T04:08:02;14.70;1.00
816;DHT22;25928;51.062;13.752;2023-05-02T04:10:28;14.70;1.00
816;DHT22;25928;51.062;13.752;2023-05-02T04:12:53;14.90;1.00
816;DHT22;25928;51.062;13.752;2023-05-02T04:15:19;14.60;1.00
816;DHT22;25928;51.062;13.752;2023-05-02T04:17:45;14.60;1.00
816;DHT22;25928;51.062;13.752;2023-05-02T04:20:11;14.50;1.00
816;DHT22;25928;51.062;13.752;2023-05-02T04:22:37;14.60;1.00
816;DHT22;25928;51.062;13.752;2023-05-02T04:25:04;14.50;1.00
816;DHT22;25928;51.062;13.752;2023-05-02T04:27:31;14.40;1.00
816;DHT22;25928;51.062;13.752;2023-05-02T04:29:56;14.50;1.00
816;DHT22;25928;51.062;13.752;2023-05-02T04:32:22;14.60;1.00
816;DHT22;25928;51.062;13.752;2023-05-02T04:34:48;14.60;1.00
816;DHT22;25928;51.062;13.752;2023-05-02T04:37:14;14.70;1.00
816;DHT22;25928;51.062;13.752;2023-05-02T04:39:39;14.80;1.00
816;DHT22;25928;51.062;13.752;2023-05-02T04:42:05;14.80;1.00
816;DHT22;25928;51.062;13.752;2023-05-02T04:44:30;14.80;1.00
816;DHT22;25928;51.062;13.752;2023-05-02T04:46:56;14.70;1.00
816;DHT22;25928;51.062;13.752;2023-05-02T04:49:21;14.70;1.00
816;DHT22;25928;51.062;13.752;2023-05-02T04:51:47;14.70;1.00
816;DHT22;25928;51.062;13.752;2023-05-02T04:54:13;14.60;1.00
816;DHT22;25928;51.062;13.752;2023-05-02T04:56:39;14.70;1.00
816;DHT22;25928;51.062;13.752;2023-05-02T04:59:04;14.90;1.00
816;DHT22;25928;51.062;13.752;2023-05-02T05:01:30;15.00;99.90
816;DHT22;25928;51.062;13.752;2023-05-02T05:03:56;14.90;1.00
816;DHT22;25928;51.062;13.752;2023-05-02T05:06:21;14.90;99.90
816;DHT22;25928;51.062;13.752;2023-05-02T05:08:47;15.10;99.90
816;DHT22;25928;51.062;13.752;2023-05-02T05:11:13;15.10;99.90
816;DHT22;25928;51.062;13.752;2023-05-02T05:13:42;15.00;99.90
816;DHT22;25928;51.062;13.752;2023-05-02T05:16:08;15.10;99.90
816;DHT22;25928;51.062;13.752;2023-05-02T05:18:34;15.10;99.90
816;DHT22;25928;51.062;13.752;2023-05-02T05:21:05;15.00;99.90
816;DHT22;25928;51.062;13.752;2023-05-02T05:23:32;15.00;99.90
816;DHT22;25928;51.062;13.752;2023-05-02T05:25:57;15.00;99.90
816;DHT22;25928;51.062;13.752;2023-05-02T05:28:23;15.00;99.90
816;DHT22;25928;51.062;13.752;2023-05-02T05:30:49;15.00;99.90
816;DHT22;25928;51.062;13.752;2023-05-02T05:33:16;15.00;99.90
816;DHT22;25928;51.062;13.752;2023-05-02T05:35:41;15.00;99.90
816;DHT22;25928;51.062;13.752;2023-05-02T05:38:07;15.00;99.90
816;DHT22;25928;51.062;13.752;2023-05-02T05:40:33;15.10;99.90
816;DHT22;25928;51.062;13.752;2023-05-02T05:42:58;15.20;99.90
816;DHT22;25928;51.062;13.752;2023-05-02T05:45:24;15.20;99.90
816;DHT22;25928;51.062;13.752;2023-05-02T05:47:49;15.30;99.90
816;DHT22;25928;51.062;13.752;2023-05-02T05:50:15;15.40;99.90
816;DHT22;25928;51.062;13.752;2023-05-02T05:52:41;15.60;99.90
816;DHT22;25928;51.062;13.752;2023-05-02T05:55:07;15.60;99.90
816;DHT22;25928;51.062;13.752;2023-05-02T05:57:33;15.50;99.90
816;DHT22;25928;51.062;13.752;2023-05-02T05:59:58;15.60;99.90
816;DHT22;25928;51.062;13.752;2023-05-02T06:02:24;15.60;99.90
816;DHT22;25928;51.062;13.752;2023-05-02T06:04:50;15.20;99.90
816;DHT22;25928;51.062;13.752;2023-05-02T06:07:16;15.30;99.90
816;DHT22;25928;51.062;13.752;2023-05-02T06:09:41;15.30;99.90
816;DHT22;25928;51.062;13.752;2023-05-02T06:12:07;15.50;99.90
816;DHT22;25928;51.062;13.752;2023-05-02T06:14:32;15.50;99.90
816;DHT22;25928;51.062;13.752;2023-05-02T06:16:58;15.70;99.90
816;DHT22;25928;51.062;13.752;2023-05-02T06:19:25;15.40;99.90
816;DHT22;25928;51.062;13.752;2023-05-02T06:21:50;15.70;99.90
816;DHT22;25928;51.062;13.752;2023-05-02T06:24:16;15.70;99.90
816;DHT22;25928;51.062;13.752;2023-05-02T06:26:41;15.60;99.90
816;DHT22;25928;51.062;13.752;2023-05-02T06:29:07;15.40;99.90
816;DHT22;25928;51.062;13.752;2023-05-02T06:31:33;15.60;99.90
816;DHT22;25928;51.062;13.752;2023-05-02T06:33:58;15.70;99.90
816;DHT22;25928;51.062;13.752;2023-05-02T06:36:24;15.60;99.90
816;DHT22;25928;51.062;13.752;2023-05-02T06:38:50;15.70;99.90
816;DHT22;25928;51.062;13.752;2023-05-02T06:41:15;15.90;99.90
816;DHT22;25928;51.062;13.752;2023-05-02T06:43:41;15.90;99.90
816;DHT22;25928;51.062;13.752;2023-05-02T06:46:08;15.80;99.90
816;DHT22;25928;51.062;13.752;2023-05-02T06:48:36;15.70;99.90
816;DHT22;25928;51.062;13.752;2023-05-02T06:51:02;15.80;99.90
816;DHT22;25928;51.062;13.752;2023-05-02T06:53:29;15.80;99.90
816;DHT22;25928;51.062;13.752;2023-05-02T06:55:55;15.80;99.90
816;DHT22;25928;51.062;13.752;2023-05-02T06:58:20;15.50;99.90
816;DHT22;25928;51.062;13.752;2023-05-02T07:00:47;15.50;99.90
816;DHT22;25928;51.062;13.752;2023-05-02T07:03:14;15.70;99.90
816;DHT22;25928;51.062;13.752;2023-05-02T07:05:40;15.90;99.90
816;DHT22;25928;51.062;13.752;2023-05-02T07:08:06;16.00;99.90
816;DHT22;25928;51.062;13.752;2023-05-02T07:10:31;16.30;99.90
816;DHT22;25928;51.062;13.752;2023-05-02T07:12:57;16.30;99.90
816;DHT22;25928;51.062;13.752;2023-05-02T07:15:22;16.20;99.90
816;DHT22;25928;51.062;13.752;2023-05-02T07:17:48;16.30;99.90
816;DHT22;25928;51.062;13.752;2023-05-02T07:20:14;16.20;99.90
816;DHT22;25928;51.062;13.752;2023-05-02T07:22:41;16.30;99.90
816;DHT22;25928;51.062;13.752;2023-05-02T07:25:07;16.40;99.90
816;DHT22;25928;51.062;13.752;2023-05-02T07:27:32;16.20;99.90
816;DHT22;25928;51.062;13.752;2023-05-02T07:29:58;16.40;99.90
816;DHT22;25928;51.062;13.752;2023-05-02T07:32:24;16.40;99.90
816;DHT22;25928;51.062;13.752;2023-05-02T07:34:51;16.40;99.90
816;DHT22;25928;51.062;13.752;2023-05-02T07:37:20;16.20;99.90
816;DHT22;25928;51.062;13.752;2023-05-02T07:39:46;16.10;99.90
816;DHT22;25928;51.062;13.752;2023-05-02T07:42:11;16.00;99.90
816;DHT22;25928;51.062;13.752;2023-05-02T07:44:37;15.80;99.90
816;DHT22;25928;51.062;13.752;2023-05-02T07:47:03;15.70;99.90
816;DHT22;25928;51.062;13.752;2023-05-02T07:49:28;15.70;99.90
816;DHT22;25928;51.062;13.752;2023-05-02T07:51:55;15.50;99.90
816;DHT22;25928;51.062;13.752;2023-05-02T07:54:21;15.60;99.90
816;DHT22;25928;51.062;13.752;2023-05-02T07:56:47;15.60;99.90
816;DHT22;25928;51.062;13.752;2023-05-02T07:59:13;15.70;99.90
816;DHT22;25928;51.062;13.752;2023-05-02T08:01:39;15.60;99.90
816;DHT22;25928;51.062;13.752;2023-05-02T08:04:06;15.50;99.90
816;DHT22;25928;51.062;13.752;2023-05-02T08:06:32;15.60;99.90
816;DHT22;25928;51.062;13.752;2023-05-02T08:08:58;15.70;99.90
816;DHT22;25928;51.062;13.752;2023-05-02T08:11:24;16.00;99.90
816;DHT22;25928;51.062;13.752;2023-05-02T08:13:50;15.90;99.90
816;DHT22;25928;51.062;13.752;2023-05-02T08:16:16;15.90;99.90
816;DHT22;25928;51.062;13.752;2023-05-02T08:18:42;16.00;99.90
816;DHT22;25928;51.062;13.752;2023-05-02T08:21:07;16.10;99.90
816;DHT22;25928;51.062;13.752;2023-05-02T08:23:33;16.60;99.90
816;DHT22;25928;51.062;13.752;2023-05-02T08:25:58;16.90;99.90
816;DHT22;25928;51.062;13.752;2023-05-02T08:28:24;17.00;99.90
816;DHT22;25928;51.062;13.752;2023-05-02T08:30:50;17.30;99.90
816;DHT22;25928;51.062;13.752;2023-05-02T08:33:15;17.70;99.90
816;DHT22;25928;51.062;13.752;2023-05-02T08:35:41;17.70;99.90
816;DHT22;25928;51.062;13.752;2023-05-02T08:38:07;17.50;99.90
816;DHT22;25928;51.062;13.752;2023-05-02T08:40:35;17.60;99.90
816;DHT22;25928;51.062;13.752;2023-05-02T08:43:02;17.50;99.90
816;DHT22;25928;51.062;13.752;2023-05-02T08:45:39;17.40;99.90
816;DHT22;25928;51.062;13.752;2023-05-02T08:48:09;17.60;99.90
816;DHT22;25928;51.062;13.752;2023-05-02T08:50:40;18.00;99.90
816;DHT22;25928;51.062;13.752;2023-05-02T08:53:10;18.10;99.90
816;DHT22;25928;51.062;13.752;2023-05-02T08:55:38;18.10;99.90
816;DHT22;25928;51.062;13.752;2023-05-02T08:58:06;17.80;99.90
816;DHT22;25928;51.062;13.752;2023-05-02T09:00:32;17.90;99.90
816;DHT22;25928;51.062;13.752;2023-05-02T09:05:45;17.80;99.90
816;DHT22;25928;51.062;13.752;2023-05-02T09:08:21;17.90;99.90
816;DHT22;25928;51.062;13.752;2023-05-02T09:10:46;17.70;99.90
816;DHT22;25928;51.062;13.752;2023-05-02T09:13:31;17.50;99.90
816;DHT22;25928;51.062;13.752;2023-05-02T09:16:05;17.60;99.90
816;DHT22;25928;51.062;13.752;2023-05-02T09:18:34;17.70;99.90
816;DHT22;25928;51.062;13.752;2023-05-02T09:21:08;17.70;99.90
816;DHT22;25928;51.062;13.752;2023-05-02T09:23:40;17.60;99.90
816;DHT22;25928;51.062;13.752;2023-05-02T09:26:18;17.60;99.90
816;DHT22;25928;51.062;13.752;2023-05-02T09:28:49;17.70;99.90
816;DHT22;25928;51.062;13.752;2023-05-02T09:31:21;18.00;99.90
816;DHT22;25928;51.062;13.752;2023-05-02T09:33:47;17.90;99.90
816;DHT22;25928;51.062;13.752;2023-05-02T09:36:18;17.50;99.90
816;DHT22;25928;51.062;13.752;2023-05-02T09:38:46;17.40;99.90
816;DHT22;25928;51.062;13.752;2023-05-02T09:41:13;17.40;99.90
816;DHT22;25928;51.062;13.752;2023-05-02T09:43:39;17.70;99.90
816;DHT22;25928;51.062;13.752;2023-05-02T09:46:08;18.00;99.90
816;DHT22;25928;51.062;13.752;2023-05-02T09:48:53;17.70;99.90
816;DHT22;25928;51.062;13.752;2023-05-02T09:51:21;17.80;99.90
816;DHT22;25928;51.062;13.752;2023-05-02T09:53:47;17.90;99.90
816;DHT22;25928;51.062;13.752;2023-05-02T09:56:13;17.90;99.90
816;DHT22;25928;51.062;13.752;2023-05-02T09:58:39;18.20;99.90
816;DHT22;25928;51.062;13.752;2023-05-02T10:01:04;18.50;99.90
816;DHT22;25928;51.062;13.752;2023-05-02T10:03:30;19.00;99.90
816;DHT22;25928;51.062;13.752;2023-05-02T10:05:57;18.90;99.90
816;DHT22;25928;51.062;13.752;2023-05-02T10:08:26;19.00;99.90
816;DHT22;25928;51.062;13.752;2023-05-02T10:10:57;18.70;99.90
816;DHT22;25928;51.062;13.752;2023-05-02T10:13:25;18.60;99.90
816;DHT22;25928;51.062;13.752;2023-05-02T10:16:01;18.80;99.90
816;DHT22;25928;51.062;13.752;2023-05-02T10:21:05;18.30;99.90
816;DHT22;25928;51.062;13.752;2023-05-02T10:23:32;18.50;99.90
816;DHT22;25928;51.062;13.752;2023-05-02T10:25:59;18.70;99.90
816;DHT22;25928;51.062;13.752;2023-05-02T10:28:25;18.80;99.90
816;DHT22;25928;51.062;13.752;2023-05-02T10:30:52;18.40;99.90
816;DHT22;25928;51.062;13.752;2023-05-02T10:33:20;18.50;99.90
816;DHT22;25928;51.062;13.752;2023-05-02T10:35:46;18.70;99.90
816;DHT22;25928;51.062;13.752;2023-05-02T10:38:14;18.70;99.90
816;DHT22;25928;51.062;13.752;2023-05-02T10:40:41;18.80;99.90
816;DHT22;25928;51.062;13.752;2023-05-02T10:43:14;18.70;99.90
816;DHT22;25928;51.062;13.752;2023-05-02T10:45:41;18.60;99.90
816;DHT22;25928;51.062;13.752;2023-05-02T10:48:14;18.60;99.90
816;DHT22;25928;51.062;13.752;2023-05-02T10:50:44;19.00;99.90
816;DHT22;25928;51.062;13.752;2023-05-02T10:53:29;19.30;99.90
816;DHT22;25928;51.062;13.752;2023-05-02T10:58:35;19.30;99.90
816;DHT22;25928;51.062;13.752;2023-05-02T11:06:29;19.60;99.90
816;DHT22;25928;51.062;13.752;2023-05-02T11:11:47;19.70;99.90
816;DHT22;25928;51.062;13.752;2023-05-02T11:24:52;19.00;99.90
816;DHT22;25928;51.062;13.752;2023-05-02T11:30:01;18.80;99.90
816;DHT22;25928;51.062;13.752;2023-05-02T11:35:20;19.80;99.90
816;DHT22;25928;51.062;13.752;2023-05-02T11:37:53;19.90;99.90
816;DHT22;25928;51.062;13.752;2023-05-02T11:40:19;19.70;99.90
816;DHT22;25928;51.062;13.752;2023-05-02T11:42:45;19.60;99.90
816;DHT22;25928;51.062;13.752;2023-05-02T11:45:11;19.60;99.90
816;DHT22;25928;51.062;13.752;2023-05-02T11:47:37;19.90;99.90
816;DHT22;25928;51.062;13.752;2023-05-02T11:50:06;20.20;99.90
816;DHT22;25928;51.062;13.752;2023-05-02T11:52:38;20.10;99.90
816;DHT22;25928;51.062;13.752;2023-05-02T11:55:05;20.10;99.90
816;DHT22;25928;51.062;13.752;2023-05-02T11:57:34;19.90;99.90
816;DHT22;25928;51.062;13.752;2023-05-02T12:00:00;19.70;99.90
816;DHT22;25928;51.062;13.752;2023-05-02T12:02:44;19.40;99.90
816;DHT22;25928;51.062;13.752;2023-05-02T12:05:13;19.30;99.90
816;DHT22;25928;51.062;13.752;2023-05-02T12:07:44;19.40;99.90
816;DHT22;25928;51.062;13.752;2023-05-02T12:10:11;19.50;99.90
816;DHT22;25928;51.062;13.752;2023-05-02T12:12:38;19.70;99.90
816;DHT22;25928;51.062;13.752;2023-05-02T12:15:09;19.90;99.90
816;DHT22;25928;51.062;13.752;2023-05-02T12:17:46;20.10;99.90
816;DHT22;25928;51.062;13.752;2023-05-02T12:20:16;19.90;99.90
816;DHT22;25928;51.062;13.752;2023-05-02T12:22:42;19.50;99.90
816;DHT22;25928;51.062;13.752;2023-05-02T12:25:08;19.10;99.90
816;DHT22;25928;51.062;13.752;2023-05-02T12:27:34;18.80;99.90
816;DHT22;25928;51.062;13.752;2023-05-02T12:30:00;18.60;99.90
816;DHT22;25928;51.062;13.752;2023-05-02T12:32:33;18.50;99.90
816;DHT22;25928;51.062;13.752;2023-05-02T12:35:00;18.60;99.90
816;DHT22;25928;51.062;13.752;2023-05-02T12:37:27;19.10;99.90
816;DHT22;25928;51.062;13.752;2023-05-02T12:39:53;19.50;99.90
816;DHT22;25928;51.062;13.752;2023-05-02T12:42:22;20.00;99.90
816;DHT22;25928;51.062;13.752;2023-05-02T12:44:48;20.50;99.90
816;DHT22;25928;51.062;13.752;2023-05-02T12:47:17;20.50;99.90
816;DHT22;25928;51.062;13.752;2023-05-02T12:49:56;20.70;99.90
816;DHT22;25928;51.062;13.752;2023-05-02T12:52:45;21.20;99.90
816;DHT22;25928;51.062;13.752;2023-05-02T12:55:24;21.40;99.90
816;DHT22;25928;51.062;13.752;2023-05-02T12:57:58;21.00;99.90
816;DHT22;25928;51.062;13.752;2023-05-02T13:00:24;20.10;99.90
816;DHT22;25928;51.062;13.752;2023-05-02T13:02:50;19.60;99.90
816;DHT22;25928;51.062;13.752;2023-05-02T13:05:16;19.40;99.90
816;DHT22;25928;51.062;13.752;2023-05-02T13:07:42;19.50;99.90
816;DHT22;25928;51.062;13.752;2023-05-02T13:10:09;19.40;99.90
816;DHT22;25928;51.062;13.752;2023-05-02T13:12:36;19.40;99.90
816;DHT22;25928;51.062;13.752;2023-05-02T13:15:06;19.50;99.90
816;DHT22;25928;51.062;13.752;2023-05-02T13:17:33;19.70;99.90
816;DHT22;25928;51.062;13.752;2023-05-02T13:19:59;19.70;99.90
816;DHT22;25928;51.062;13.752;2023-05-02T13:22:26;19.70;99.90
816;DHT22;25928;51.062;13.752;2023-05-02T13:24:52;19.90;99.90
816;DHT22;25928;51.062;13.752;2023-05-02T13:27:17;19.70;99.90
816;DHT22;25928;51.062;13.752;2023-05-02T13:29:44;19.70;99.90
816;DHT22;25928;51.062;13.752;2023-05-02T13:32:10;19.90;99.90
816;DHT22;25928;51.062;13.752;2023-05-02T13:34:35;20.00;99.90
816;DHT22;25928;51.062;13.752;2023-05-02T13:37:01;20.20;99.90
816;DHT22;25928;51.062;13.752;2023-05-02T13:39:26;20.40;99.90
816;DHT22;25928;51.062;13.752;2023-05-02T13:41:52;20.40;99.90
816;DHT22;25928;51.062;13.752;2023-05-02T13:44:18;20.30;99.90
816;DHT22;25928;51.062;13.752;2023-05-02T13:46:43;20.30;99.90
816;DHT22;25928;51.062;13.752;2023-05-02T13:49:09;20.00;99.90
816;DHT22;25928;51.062;13.752;2023-05-02T13:51:35;20.00;99.90
816;DHT22;25928;51.062;13.752;2023-05-02T13:54:01;19.70;99.90
816;DHT22;25928;51.062;13.752;2023-05-02T13:56:27;19.40;99.90
816;DHT22;25928;51.062;13.752;2023-05-02T13:58:52;19.20;99.90
816;DHT22;25928;51.062;13.752;2023-05-02T14:01:18;18.90;99.90
816;DHT22;25928;51.062;13.752;2023-05-02T14:03:44;19.10;99.90
816;DHT22;25928;51.062;13.752;2023-05-02T14:06:09;19.10;99.90
816;DHT22;25928;51.062;13.752;2023-05-02T14:08:35;19.10;99.90
816;DHT22;25928;51.062;13.752;2023-05-02T14:11:01;19.20;99.90
816;DHT22;25928;51.062;13.752;2023-05-02T14:13:26;19.40;99.90
816;DHT22;25928;51.062;13.752;2023-05-02T14:15:52;19.60;99.90
816;DHT22;25928;51.062;13.752;2023-05-02T14:18:18;19.60;99.90
816;DHT22;25928;51.062;13.752;2023-05-02T14:20:44;19.70;99.90
816;DHT22;25928;51.062;13.752;2023-05-02T14:23:10;20.10;99.90
816;DHT22;25928;51.062;13.752;2023-05-02T14:25:36;20.90;99.90
816;DHT22;25928;51.062;13.752;2023-05-02T14:28:02;21.50;99.90
816;DHT22;25928;51.062;13.752;2023-05-02T14:30:28;22.10;99.90
816;DHT22;25928;51.062;13.752;2023-05-02T14:32:54;22.40;99.90
816;DHT22;25928;51.062;13.752;2023-05-02T14:35:20;22.20;99.90
816;DHT22;25928;51.062;13.752;2023-05-02T14:37:46;21.20;99.90
816;DHT22;25928;51.062;13.752;2023-05-02T14:40:12;20.50;99.90
816;DHT22;25928;51.062;13.752;2023-05-02T14:42:41;20.00;99.90
816;DHT22;25928;51.062;13.752;2023-05-02T14:45:08;19.80;99.90
816;DHT22;25928;51.062;13.752;2023-05-02T14:47:34;19.30;99.90
816;DHT22;25928;51.062;13.752;2023-05-02T14:50:01;19.00;99.90
816;DHT22;25928;51.062;13.752;2023-05-02T14:52:27;18.70;99.90
816;DHT22;25928;51.062;13.752;2023-05-02T14:54:53;18.60;99.90
816;DHT22;25928;51.062;13.752;2023-05-02T14:57:18;18.50;99.90
816;DHT22;25928;51.062;13.752;2023-05-02T14:59:44;18.40;99.90
816;DHT22;25928;51.062;13.752;2023-05-02T15:02:10;18.10;99.90
816;DHT22;25928;51.062;13.752;2023-05-02T15:04:36;17.80;99.90
816;DHT22;25928;51.062;13.752;2023-05-02T15:07:02;17.70;99.90
816;DHT22;25928;51.062;13.752;2023-05-02T15:09:28;17.50;99.90
816;DHT22;25928;51.062;13.752;2023-05-02T15:11:54;17.60;99.90
816;DHT22;25928;51.062;13.752;2023-05-02T15:14:20;17.60;99.90
816;DHT22;25928;51.062;13.752;2023-05-02T15:16:46;17.60;99.90
816;DHT22;25928;51.062;13.752;2023-05-02T15:19:12;17.50;99.90
816;DHT22;25928;51.062;13.752;2023-05-02T15:21:38;17.60;99.90
816;DHT22;25928;51.062;13.752;2023-05-02T15:24:04;17.50;99.90
816;DHT22;25928;51.062;13.752;2023-05-02T15:26:30;17.30;99.90
816;DHT22;25928;51.062;13.752;2023-05-02T15:28:56;17.20;99.90
816;DHT22;25928;51.062;13.752;2023-05-02T15:31:22;17.10;99.90
816;DHT22;25928;51.062;13.752;2023-05-02T15:33:48;17.20;99.90
816;DHT22;25928;51.062;13.752;2023-05-02T15:36:14;17.20;99.90
816;DHT22;25928;51.062;13.752;2023-05-02T15:38:40;17.10;99.90
816;DHT22;25928;51.062;13.752;2023-05-02T15:41:08;17.00;99.90
816;DHT22;25928;51.062;13.752;2023-05-02T15:43:34;16.90;99.90
816;DHT22;25928;51.062;13.752;2023-05-02T15:46:00;16.80;99.90
816;DHT22;25928;51.062;13.752;2023-05-02T15:48:27;16.80;99.90
816;DHT22;25928;51.062;13.752;2023-05-02T15:50:53;16.90;99.90
816;DHT22;25928;51.062;13.752;2023-05-02T15:53:19;16.80;99.90
816;DHT22;25928;51.062;13.752;2023-05-02T15:55:49;16.90;99.90
816;DHT22;25928;51.062;13.752;2023-05-02T15:58:16;16.70;99.90
816;DHT22;25928;51.062;13.752;2023-05-02T16:00:42;16.80;99.90
816;DHT22;25928;51.062;13.752;2023-05-02T16:03:08;16.40;99.90
816;DHT22;25928;51.062;13.752;2023-05-02T16:05:34;16.40;99.90
816;DHT22;25928;51.062;13.752;2023-05-02T16:08:00;16.50;99.90
816;DHT22;25928;51.062;13.752;2023-05-02T16:10:26;16.50;99.90
816;DHT22;25928;51.062;13.752;2023-05-02T16:12:52;16.50;99.90
816;DHT22;25928;51.062;13.752;2023-05-02T16:15:21;16.50;99.90
816;DHT22;25928;51.062;13.752;2023-05-02T16:17:46;16.60;99.90
816;DHT22;25928;51.062;13.752;2023-05-02T16:20:14;16.60;99.90
816;DHT22;25928;51.062;13.752;2023-05-02T16:22:46;16.50;99.90
816;DHT22;25928;51.062;13.752;2023-05-02T16:25:13;16.30;99.90
816;DHT22;25928;51.062;13.752;2023-05-02T16:27:41;16.20;99.90
816;DHT22;25928;51.062;13.752;2023-05-02T16:30:07;16.00;99.90
816;DHT22;25928;51.062;13.752;2023-05-02T16:32:33;16.20;99.90
816;DHT22;25928;51.062;13.752;2023-05-02T16:34:59;16.30;99.90
816;DHT22;25928;51.062;13.752;2023-05-02T16:37:25;16.50;99.90
816;DHT22;25928;51.062;13.752;2023-05-02T16:39:50;16.60;99.90
816;DHT22;25928;51.062;13.752;2023-05-02T16:42:16;16.60;99.90